DHIPP EDLW-EDLW

Flight info

Callsign DHIPP
Flight time 0h 2m
Altitude
Route EDLW/06
Aircraft EC135

Departure

Time 2026-05-05 17:17
Airport Dortmund Airport (EDLW)

Arrival

Time 2026-05-05 17:19
Airport Dortmund Airport (EDLW)
Time Latitude Longitude Altitude Speed Heading
2026-05-05 17:13 51.44932 7.60191 362 ft 0 kts 354°
2026-05-05 17:14 51.44952 7.60419 504 ft 74 kts 89°
2026-05-05 17:15 51.45307 7.61280 746 ft 117 kts 17°
2026-05-05 17:15 51.46018 7.60764 852 ft 124 kts 299°
2026-05-05 17:15 51.46320 7.59563 898 ft 118 kts 251°
2026-05-05 17:15 51.45826 7.58499 952 ft 122 kts 224°
2026-05-05 17:16 51.45125 7.57709 912 ft 123 kts 235°
2026-05-05 17:16 51.45436 7.56623 964 ft 122 kts 333°
2026-05-05 17:16 51.46276 7.56248 935 ft 132 kts 342°
2026-05-05 17:16 51.47172 7.55910 906 ft 131 kts 343°
2026-05-05 17:17 51.48073 7.55617 809 ft 132 kts 343°
2026-05-05 17:17 51.48962 7.55309 780 ft 127 kts 345°
2026-05-05 17:17 51.49806 7.55251 1045 ft 124 kts 21°
2026-05-05 17:17 51.50225 7.56487 841 ft 85 kts 58°
2026-05-05 17:18 51.50527 7.57601 743 ft 121 kts 58°
2026-05-05 17:18 51.51230 7.58086 765 ft 129 kts 329°
2026-05-05 17:18 51.51402 7.56818 856 ft 122 kts 243°
2026-05-05 17:18 51.50741 7.56689 916 ft 126 kts 115°
2026-05-05 17:19 51.50642 7.58144 799 ft 137 kts 66°
2026-05-05 17:19 51.51160 7.59355 652 ft 109 kts 51°
2026-05-05 17:19 51.51488 7.60245 500 ft 64 kts 50°
2026-05-05 17:19 51.51586 7.60535 421 ft 14 kts 51°
2026-05-05 17:20 51.51537 7.60656 418 ft 12 kts 117°
2026-05-05 17:20 51.51531 7.60684 415 ft 0 kts 97°
2026-05-05 17:21 51.51535 7.60770 433 ft 23 kts 61°
2026-05-05 17:22 51.51474 7.60947 438 ft 40 kts 231°
2026-05-05 17:22 51.51271 7.60351 468 ft 61 kts 230°
2026-05-05 17:22 51.51159 7.60047 477 ft 20 kts 216°
2026-05-05 17:22 51.51065 7.60026 467 ft 9 kts 134°
2026-05-05 17:23 51.51058 7.60033 465 ft 0 kts 144°